sensor_id;sensor_type;location;lat;lon;timestamp;P1;durP1;ratioP1;P2;durP2;ratioP2
60867;SDS011;46702;48.370;10.794;2023-04-06T00:01:35;4.80;;;3.75;;
60867;SDS011;46702;48.370;10.794;2023-04-06T00:04:01;6.97;;;4.35;;
60867;SDS011;46702;48.370;10.794;2023-04-06T00:06:27;4.13;;;3.67;;
60867;SDS011;46702;48.370;10.794;2023-04-06T00:08:52;5.05;;;3.58;;
60867;SDS011;46702;48.370;10.794;2023-04-06T00:11:18;3.90;;;3.58;;
60867;SDS011;46702;48.370;10.794;2023-04-06T00:17:06;6.07;;;4.00;;
60867;SDS011;46702;48.370;10.794;2023-04-06T00:19:32;3.55;;;3.30;;
60867;SDS011;46702;48.370;10.794;2023-04-06T00:21:58;4.57;;;3.53;;
60867;SDS011;46702;48.370;10.794;2023-04-06T00:24:24;4.20;;;3.80;;
60867;SDS011;46702;48.370;10.794;2023-04-06T00:26:50;3.55;;;2.97;;
60867;SDS011;46702;48.370;10.794;2023-04-06T00:29:15;4.82;;;3.88;;
60867;SDS011;46702;48.370;10.794;2023-04-06T00:31:41;4.07;;;3.67;;
60867;SDS011;46702;48.370;10.794;2023-04-06T00:34:06;5.68;;;3.92;;
60867;SDS011;46702;48.370;10.794;2023-04-06T00:36:32;3.85;;;2.83;;
60867;SDS011;46702;48.370;10.794;2023-04-06T00:38:58;5.78;;;4.43;;
60867;SDS011;46702;48.370;10.794;2023-04-06T00:41:23;5.45;;;3.97;;
60867;SDS011;46702;48.370;10.794;2023-04-06T00:43:49;6.28;;;3.88;;
60867;SDS011;46702;48.370;10.794;2023-04-06T00:46:15;3.92;;;3.55;;
60867;SDS011;46702;48.370;10.794;2023-04-06T00:48:40;5.32;;;4.15;;
60867;SDS011;46702;48.370;10.794;2023-04-06T00:51:06;3.65;;;3.30;;
60867;SDS011;46702;48.370;10.794;2023-04-06T00:53:32;4.13;;;3.10;;
60867;SDS011;46702;48.370;10.794;2023-04-06T00:55:57;6.55;;;3.90;;
60867;SDS011;46702;48.370;10.794;2023-04-06T00:58:23;4.00;;;3.67;;
60867;SDS011;46702;48.370;10.794;2023-04-06T01:00:49;4.38;;;3.80;;
60867;SDS011;46702;48.370;10.794;2023-04-06T01:03:15;5.68;;;4.00;;
60867;SDS011;46702;48.370;10.794;2023-04-06T01:05:41;8.32;;;3.80;;
60867;SDS011;46702;48.370;10.794;2023-04-06T01:08:07;4.20;;;3.75;;
60867;SDS011;46702;48.370;10.794;2023-04-06T01:10:34;4.05;;;3.65;;
60867;SDS011;46702;48.370;10.794;2023-04-06T01:12:59;4.22;;;3.55;;
60867;SDS011;46702;48.370;10.794;2023-04-06T01:15:25;5.28;;;3.85;;
60867;SDS011;46702;48.370;10.794;2023-04-06T01:17:53;4.70;;;3.60;;
60867;SDS011;46702;48.370;10.794;2023-04-06T01:20:19;4.28;;;3.90;;
60867;SDS011;46702;48.370;10.794;2023-04-06T01:22:44;3.88;;;3.55;;
60867;SDS011;46702;48.370;10.794;2023-04-06T01:25:10;6.10;;;3.38;;
60867;SDS011;46702;48.370;10.794;2023-04-06T01:27:36;5.28;;;3.72;;
60867;SDS011;46702;48.370;10.794;2023-04-06T01:30:02;4.07;;;3.78;;
60867;SDS011;46702;48.370;10.794;2023-04-06T01:32:28;5.05;;;3.38;;
60867;SDS011;46702;48.370;10.794;2023-04-06T01:34:53;4.47;;;3.50;;
60867;SDS011;46702;48.370;10.794;2023-04-06T01:37:19;4.00;;;3.45;;
60867;SDS011;46702;48.370;10.794;2023-04-06T01:39:45;5.57;;;4.15;;
60867;SDS011;46702;48.370;10.794;2023-04-06T01:42:11;5.80;;;4.28;;
60867;SDS011;46702;48.370;10.794;2023-04-06T01:44:36;3.20;;;2.92;;
60867;SDS011;46702;48.370;10.794;2023-04-06T01:47:02;5.13;;;4.72;;
60867;SDS011;46702;48.370;10.794;2023-04-06T01:49:28;4.10;;;3.78;;
60867;SDS011;46702;48.370;10.794;2023-04-06T01:51:53;3.85;;;3.50;;
60867;SDS011;46702;48.370;10.794;2023-04-06T01:54:19;9.93;;;3.95;;
60867;SDS011;46702;48.370;10.794;2023-04-06T02:00:08;4.50;;;4.10;;
60867;SDS011;46702;48.370;10.794;2023-04-06T02:02:34;3.53;;;3.25;;
60867;SDS011;46702;48.370;10.794;2023-04-06T02:05:00;4.40;;;3.83;;
60867;SDS011;46702;48.370;10.794;2023-04-06T02:07:25;4.63;;;4.10;;
60867;SDS011;46702;48.370;10.794;2023-04-06T02:09:53;4.05;;;3.65;;
60867;SDS011;46702;48.370;10.794;2023-04-06T02:12:20;4.68;;;3.95;;
60867;SDS011;46702;48.370;10.794;2023-04-06T02:14:46;4.30;;;3.90;;
60867;SDS011;46702;48.370;10.794;2023-04-06T02:17:12;6.43;;;3.35;;
60867;SDS011;46702;48.370;10.794;2023-04-06T02:19:37;5.53;;;3.67;;
60867;SDS011;46702;48.370;10.794;2023-04-06T02:22:03;5.57;;;3.55;;
60867;SDS011;46702;48.370;10.794;2023-04-06T02:24:29;5.63;;;4.25;;
60867;SDS011;46702;48.370;10.794;2023-04-06T02:26:54;4.60;;;4.10;;
60867;SDS011;46702;48.370;10.794;2023-04-06T02:29:20;5.88;;;4.20;;
60867;SDS011;46702;48.370;10.794;2023-04-06T02:31:46;3.78;;;3.47;;
60867;SDS011;46702;48.370;10.794;2023-04-06T02:34:12;7.32;;;4.60;;
60867;SDS011;46702;48.370;10.794;2023-04-06T02:36:42;4.05;;;3.60;;
60867;SDS011;46702;48.370;10.794;2023-04-06T02:39:09;6.95;;;4.15;;
60867;SDS011;46702;48.370;10.794;2023-04-06T02:41:35;9.20;;;4.45;;
60867;SDS011;46702;48.370;10.794;2023-04-06T02:44:01;4.95;;;3.75;;
60867;SDS011;46702;48.370;10.794;2023-04-06T02:46:27;5.07;;;3.53;;
60867;SDS011;46702;48.370;10.794;2023-04-06T02:48:53;4.55;;;3.88;;
60867;SDS011;46702;48.370;10.794;2023-04-06T02:51:18;4.97;;;4.40;;
60867;SDS011;46702;48.370;10.794;2023-04-06T02:53:44;7.47;;;3.97;;
60867;SDS011;46702;48.370;10.794;2023-04-06T02:56:10;4.78;;;4.28;;
60867;SDS011;46702;48.370;10.794;2023-04-06T02:58:35;5.40;;;3.85;;
60867;SDS011;46702;48.370;10.794;2023-04-06T03:01:01;5.50;;;4.90;;
60867;SDS011;46702;48.370;10.794;2023-04-06T03:03:28;9.13;;;5.68;;
60867;SDS011;46702;48.370;10.794;2023-04-06T03:05:53;3.90;;;3.58;;
60867;SDS011;46702;48.370;10.794;2023-04-06T03:08:21;4.35;;;3.28;;
60867;SDS011;46702;48.370;10.794;2023-04-06T03:10:46;4.55;;;4.15;;
60867;SDS011;46702;48.370;10.794;2023-04-06T03:13:12;7.38;;;4.60;;
60867;SDS011;46702;48.370;10.794;2023-04-06T03:15:38;4.85;;;4.45;;
60867;SDS011;46702;48.370;10.794;2023-04-06T03:18:03;7.20;;;3.65;;
60867;SDS011;46702;48.370;10.794;2023-04-06T03:20:29;6.40;;;3.95;;
60867;SDS011;46702;48.370;10.794;2023-04-06T03:22:55;5.68;;;3.80;;
60867;SDS011;46702;48.370;10.794;2023-04-06T03:25:20;6.85;;;4.25;;
60867;SDS011;46702;48.370;10.794;2023-04-06T03:27:46;5.47;;;4.53;;
60867;SDS011;46702;48.370;10.794;2023-04-06T03:30:12;4.05;;;3.63;;
60867;SDS011;46702;48.370;10.794;2023-04-06T03:32:37;5.43;;;4.18;;
60867;SDS011;46702;48.370;10.794;2023-04-06T03:35:03;10.10;;;4.60;;
60867;SDS011;46702;48.370;10.794;2023-04-06T03:37:29;4.30;;;3.13;;
60867;SDS011;46702;48.370;10.794;2023-04-06T03:39:55;3.60;;;3.22;;
60867;SDS011;46702;48.370;10.794;2023-04-06T03:42:21;6.63;;;4.30;;
60867;SDS011;46702;48.370;10.794;2023-04-06T03:44:46;6.72;;;4.22;;
60867;SDS011;46702;48.370;10.794;2023-04-06T03:47:12;5.47;;;4.60;;
60867;SDS011;46702;48.370;10.794;2023-04-06T03:49:37;4.43;;;4.03;;
60867;SDS011;46702;48.370;10.794;2023-04-06T03:52:03;3.88;;;3.58;;
60867;SDS011;46702;48.370;10.794;2023-04-06T03:54:29;4.28;;;3.97;;
60867;SDS011;46702;48.370;10.794;2023-04-06T03:56:55;4.82;;;4.35;;
60867;SDS011;46702;48.370;10.794;2023-04-06T03:59:21;5.78;;;3.95;;
60867;SDS011;46702;48.370;10.794;2023-04-06T04:01:46;4.35;;;3.95;;
60867;SDS011;46702;48.370;10.794;2023-04-06T04:04:12;5.15;;;4.03;;
60867;SDS011;46702;48.370;10.794;2023-04-06T04:06:38;3.95;;;3.65;;
60867;SDS011;46702;48.370;10.794;2023-04-06T04:09:03;4.18;;;3.88;;
60867;SDS011;46702;48.370;10.794;2023-04-06T04:11:29;4.85;;;4.35;;
60867;SDS011;46702;48.370;10.794;2023-04-06T04:13:55;4.97;;;3.95;;
60867;SDS011;46702;48.370;10.794;2023-04-06T04:16:21;23.55;;;9.40;;
60867;SDS011;46702;48.370;10.794;2023-04-06T04:18:46;35.35;;;14.45;;
60867;SDS011;46702;48.370;10.794;2023-04-06T04:21:13;8.60;;;7.38;;
60867;SDS011;46702;48.370;10.794;2023-04-06T04:23:39;8.77;;;6.05;;
60867;SDS011;46702;48.370;10.794;2023-04-06T04:26:05;6.80;;;5.60;;
60867;SDS011;46702;48.370;10.794;2023-04-06T04:28:30;18.38;;;11.45;;
60867;SDS011;46702;48.370;10.794;2023-04-06T04:30:56;16.83;;;10.63;;
60867;SDS011;46702;48.370;10.794;2023-04-06T04:33:22;8.48;;;5.60;;
60867;SDS011;46702;48.370;10.794;2023-04-06T04:35:48;12.98;;;7.30;;
60867;SDS011;46702;48.370;10.794;2023-04-06T04:38:13;5.75;;;4.75;;
60867;SDS011;46702;48.370;10.794;2023-04-06T04:40:39;8.60;;;5.28;;
60867;SDS011;46702;48.370;10.794;2023-04-06T04:43:05;8.48;;;5.30;;
60867;SDS011;46702;48.370;10.794;2023-04-06T04:45:31;16.00;;;6.85;;
60867;SDS011;46702;48.370;10.794;2023-04-06T04:47:56;6.85;;;4.97;;
60867;SDS011;46702;48.370;10.794;2023-04-06T04:50:22;5.55;;;5.05;;
60867;SDS011;46702;48.370;10.794;2023-04-06T04:52:48;7.05;;;4.68;;
60867;SDS011;46702;48.370;10.794;2023-04-06T04:55:13;6.40;;;5.63;;
60867;SDS011;46702;48.370;10.794;2023-04-06T04:57:39;5.93;;;4.82;;
60867;SDS011;46702;48.370;10.794;2023-04-06T05:00:05;7.53;;;5.28;;
60867;SDS011;46702;48.370;10.794;2023-04-06T05:02:31;6.93;;;5.60;;
60867;SDS011;46702;48.370;10.794;2023-04-06T05:04:57;8.85;;;5.80;;
60867;SDS011;46702;48.370;10.794;2023-04-06T05:07:23;6.57;;;5.18;;
60867;SDS011;46702;48.370;10.794;2023-04-06T05:09:48;5.22;;;4.80;;
60867;SDS011;46702;48.370;10.794;2023-04-06T05:12:14;5.88;;;4.20;;
60867;SDS011;46702;48.370;10.794;2023-04-06T05:14:40;10.23;;;4.28;;
60867;SDS011;46702;48.370;10.794;2023-04-06T05:17:06;6.00;;;5.40;;
60867;SDS011;46702;48.370;10.794;2023-04-06T05:19:32;3.70;;;3.42;;
60867;SDS011;46702;48.370;10.794;2023-04-06T05:21:58;3.15;;;2.92;;
60867;SDS011;46702;48.370;10.794;2023-04-06T05:24:23;5.13;;;4.60;;
60867;SDS011;46702;48.370;10.794;2023-04-06T05:26:50;8.63;;;4.35;;
60867;SDS011;46702;48.370;10.794;2023-04-06T05:29:16;6.80;;;5.32;;
60867;SDS011;46702;48.370;10.794;2023-04-06T05:31:42;4.68;;;4.20;;
60867;SDS011;46702;48.370;10.794;2023-04-06T05:34:07;6.63;;;4.93;;
60867;SDS011;46702;48.370;10.794;2023-04-06T05:36:34;5.95;;;4.18;;
60867;SDS011;46702;48.370;10.794;2023-04-06T05:39:00;4.38;;;4.03;;
60867;SDS011;46702;48.370;10.794;2023-04-06T05:41:25;7.05;;;4.75;;
60867;SDS011;46702;48.370;10.794;2023-04-06T05:43:51;4.72;;;4.32;;
60867;SDS011;46702;48.370;10.794;2023-04-06T05:46:17;8.25;;;4.88;;
60867;SDS011;46702;48.370;10.794;2023-04-06T05:48:43;5.15;;;4.32;;
60867;SDS011;46702;48.370;10.794;2023-04-06T05:51:10;8.32;;;4.50;;
60867;SDS011;46702;48.370;10.794;2023-04-06T05:53:35;7.45;;;5.18;;
60867;SDS011;46702;48.370;10.794;2023-04-06T05:56:01;6.00;;;3.88;;
60867;SDS011;46702;48.370;10.794;2023-04-06T05:58:28;10.15;;;4.57;;
60867;SDS011;46702;48.370;10.794;2023-04-06T06:00:57;4.78;;;4.03;;
60867;SDS011;46702;48.370;10.794;2023-04-06T06:03:24;4.32;;;3.95;;
60867;SDS011;46702;48.370;10.794;2023-04-06T06:05:49;7.97;;;4.15;;
60867;SDS011;46702;48.370;10.794;2023-04-06T06:08:15;7.25;;;4.90;;
60867;SDS011;46702;48.370;10.794;2023-04-06T06:10:41;5.30;;;4.68;;
60867;SDS011;46702;48.370;10.794;2023-04-06T06:13:06;6.20;;;5.47;;
60867;SDS011;46702;48.370;10.794;2023-04-06T06:15:32;27.10;;;5.72;;
60867;SDS011;46702;48.370;10.794;2023-04-06T06:17:58;6.00;;;4.88;;
60867;SDS011;46702;48.370;10.794;2023-04-06T06:20:24;5.68;;;4.22;;
60867;SDS011;46702;48.370;10.794;2023-04-06T06:22:50;9.25;;;4.72;;
60867;SDS011;46702;48.370;10.794;2023-04-06T06:25:15;4.93;;;4.50;;
60867;SDS011;46702;48.370;10.794;2023-04-06T06:27:41;9.23;;;5.90;;
60867;SDS011;46702;48.370;10.794;2023-04-06T06:30:08;6.30;;;5.00;;
60867;SDS011;46702;48.370;10.794;2023-04-06T06:32:33;8.25;;;5.78;;
60867;SDS011;46702;48.370;10.794;2023-04-06T06:34:59;5.05;;;4.60;;
60867;SDS011;46702;48.370;10.794;2023-04-06T06:37:25;5.03;;;4.03;;
60867;SDS011;46702;48.370;10.794;2023-04-06T06:39:51;7.32;;;5.57;;
60867;SDS011;46702;48.370;10.794;2023-04-06T06:42:17;7.15;;;5.63;;
60867;SDS011;46702;48.370;10.794;2023-04-06T06:44:42;7.20;;;5.72;;
60867;SDS011;46702;48.370;10.794;2023-04-06T06:47:08;8.65;;;5.05;;
60867;SDS011;46702;48.370;10.794;2023-04-06T06:49:34;4.82;;;4.43;;
60867;SDS011;46702;48.370;10.794;2023-04-06T06:52:00;11.00;;;6.53;;
60867;SDS011;46702;48.370;10.794;2023-04-06T06:54:25;9.07;;;6.28;;
60867;SDS011;46702;48.370;10.794;2023-04-06T06:56:51;9.40;;;6.30;;
60867;SDS011;46702;48.370;10.794;2023-04-06T06:59:17;9.13;;;6.60;;
60867;SDS011;46702;48.370;10.794;2023-04-06T07:01:43;5.35;;;4.03;;
60867;SDS011;46702;48.370;10.794;2023-04-06T07:04:09;6.60;;;4.25;;
60867;SDS011;46702;48.370;10.794;2023-04-06T07:06:35;9.57;;;6.40;;
60867;SDS011;46702;48.370;10.794;2023-04-06T07:09:01;8.63;;;6.13;;
60867;SDS011;46702;48.370;10.794;2023-04-06T07:11:30;11.05;;;6.55;;
60867;SDS011;46702;48.370;10.794;2023-04-06T07:13:56;15.07;;;6.70;;
60867;SDS011;46702;48.370;10.794;2023-04-06T07:16:21;10.20;;;6.10;;
60867;SDS011;46702;48.370;10.794;2023-04-06T07:18:47;15.85;;;5.85;;
60867;SDS011;46702;48.370;10.794;2023-04-06T07:21:13;9.80;;;6.47;;
60867;SDS011;46702;48.370;10.794;2023-04-06T07:23:38;9.02;;;5.90;;
60867;SDS011;46702;48.370;10.794;2023-04-06T07:26:05;13.35;;;6.47;;
60867;SDS011;46702;48.370;10.794;2023-04-06T07:28:30;5.47;;;4.97;;
60867;SDS011;46702;48.370;10.794;2023-04-06T07:30:56;8.63;;;5.72;;
60867;SDS011;46702;48.370;10.794;2023-04-06T07:33:22;10.32;;;6.25;;
60867;SDS011;46702;48.370;10.794;2023-04-06T07:35:47;6.43;;;5.82;;
60867;SDS011;46702;48.370;10.794;2023-04-06T07:38:13;8.15;;;6.07;;
60867;SDS011;46702;48.370;10.794;2023-04-06T07:40:39;6.75;;;5.10;;
60867;SDS011;46702;48.370;10.794;2023-04-06T07:43:05;9.00;;;5.60;;
60867;SDS011;46702;48.370;10.794;2023-04-06T07:45:30;9.90;;;5.68;;
60867;SDS011;46702;48.370;10.794;2023-04-06T07:47:56;8.65;;;5.90;;
60867;SDS011;46702;48.370;10.794;2023-04-06T07:50:22;7.15;;;5.07;;
60867;SDS011;46702;48.370;10.794;2023-04-06T07:52:48;10.45;;;6.03;;
60867;SDS011;46702;48.370;10.794;2023-04-06T07:55:13;9.90;;;5.28;;
60867;SDS011;46702;48.370;10.794;2023-04-06T07:57:39;11.13;;;6.65;;
60867;SDS011;46702;48.370;10.794;2023-04-06T08:00:05;9.68;;;5.18;;
60867;SDS011;46702;48.370;10.794;2023-04-06T08:02:34;11.07;;;6.85;;
60867;SDS011;46702;48.370;10.794;2023-04-06T08:07:25;6.57;;;4.32;;
60867;SDS011;46702;48.370;10.794;2023-04-06T08:09:51;14.25;;;6.95;;
60867;SDS011;46702;48.370;10.794;2023-04-06T08:12:17;16.70;;;7.22;;
60867;SDS011;46702;48.370;10.794;2023-04-06T08:14:43;7.00;;;4.75;;
60867;SDS011;46702;48.370;10.794;2023-04-06T08:17:08;8.20;;;6.15;;
60867;SDS011;46702;48.370;10.794;2023-04-06T08:19:34;11.57;;;6.63;;
60867;SDS011;46702;48.370;10.794;2023-04-06T08:22:00;11.48;;;6.57;;
60867;SDS011;46702;48.370;10.794;2023-04-06T08:24:25;7.63;;;6.00;;
60867;SDS011;46702;48.370;10.794;2023-04-06T08:26:51;10.30;;;7.05;;
60867;SDS011;46702;48.370;10.794;2023-04-06T08:29:17;9.50;;;6.20;;
60867;SDS011;46702;48.370;10.794;2023-04-06T08:31:46;6.85;;;4.88;;
60867;SDS011;46702;48.370;10.794;2023-04-06T08:34:11;9.02;;;5.70;;
60867;SDS011;46702;48.370;10.794;2023-04-06T08:36:37;9.18;;;5.90;;
60867;SDS011;46702;48.370;10.794;2023-04-06T08:39:03;9.73;;;6.05;;
60867;SDS011;46702;48.370;10.794;2023-04-06T08:41:28;12.45;;;6.93;;
60867;SDS011;46702;48.370;10.794;2023-04-06T08:43:56;9.25;;;6.50;;
60867;SDS011;46702;48.370;10.794;2023-04-06T08:46:23;6.75;;;5.10;;
60867;SDS011;46702;48.370;10.794;2023-04-06T08:49:04;7.38;;;5.68;;
60867;SDS011;46702;48.370;10.794;2023-04-06T08:51:33;6.47;;;4.53;;
60867;SDS011;46702;48.370;10.794;2023-04-06T08:54:02;9.27;;;6.03;;
60867;SDS011;46702;48.370;10.794;2023-04-06T08:56:28;8.30;;;5.30;;
60867;SDS011;46702;48.370;10.794;2023-04-06T08:58:53;10.73;;;5.97;;
60867;SDS011;46702;48.370;10.794;2023-04-06T09:01:21;9.57;;;4.63;;
60867;SDS011;46702;48.370;10.794;2023-04-06T09:03:50;9.25;;;5.32;;
60867;SDS011;46702;48.370;10.794;2023-04-06T09:06:18;6.43;;;4.07;;
60867;SDS011;46702;48.370;10.794;2023-04-06T09:08:44;10.07;;;6.03;;
60867;SDS011;46702;48.370;10.794;2023-04-06T09:11:10;8.18;;;5.38;;
60867;SDS011;46702;48.370;10.794;2023-04-06T09:13:52;10.30;;;6.35;;
60867;SDS011;46702;48.370;10.794;2023-04-06T09:16:19;8.18;;;6.03;;
60867;SDS011;46702;48.370;10.794;2023-04-06T09:18:45;7.50;;;4.95;;
60867;SDS011;46702;48.370;10.794;2023-04-06T09:21:11;9.90;;;6.40;;
60867;SDS011;46702;48.370;10.794;2023-04-06T09:23:37;10.60;;;7.03;;
60867;SDS011;46702;48.370;10.794;2023-04-06T09:26:08;10.68;;;5.82;;
60867;SDS011;46702;48.370;10.794;2023-04-06T09:28:50;10.25;;;5.85;;
60867;SDS011;46702;48.370;10.794;2023-04-06T09:31:22;8.55;;;5.40;;
60867;SDS011;46702;48.370;10.794;2023-04-06T09:33:50;9.88;;;6.20;;
60867;SDS011;46702;48.370;10.794;2023-04-06T09:36:17;10.23;;;6.53;;
60867;SDS011;46702;48.370;10.794;2023-04-06T09:38:53;13.52;;;6.30;;
60867;SDS011;46702;48.370;10.794;2023-04-06T09:41:23;11.15;;;6.00;;
60867;SDS011;46702;48.370;10.794;2023-04-06T09:44:01;9.73;;;5.37;;
60867;SDS011;46702;48.370;10.794;2023-04-06T09:46:30;11.35;;;6.88;;
60867;SDS011;46702;48.370;10.794;2023-04-06T09:48:58;8.73;;;5.68;;
60867;SDS011;46702;48.370;10.794;2023-04-06T09:51:26;8.40;;;5.65;;
60867;SDS011;46702;48.370;10.794;2023-04-06T09:54:00;9.10;;;5.22;;
60867;SDS011;46702;48.370;10.794;2023-04-06T09:59:08;8.18;;;5.68;;
60867;SDS011;46702;48.370;10.794;2023-04-06T10:01:38;12.00;;;6.22;;
60867;SDS011;46702;48.370;10.794;2023-04-06T10:06:34;7.93;;;6.18;;
60867;SDS011;46702;48.370;10.794;2023-04-06T10:09:01;9.45;;;6.03;;
60867;SDS011;46702;48.370;10.794;2023-04-06T10:11:29;7.47;;;5.63;;
60867;SDS011;46702;48.370;10.794;2023-04-06T10:13:56;11.55;;;6.40;;
60867;SDS011;46702;48.370;10.794;2023-04-06T10:16:22;9.82;;;6.55;;
60867;SDS011;46702;48.370;10.794;2023-04-06T10:18:51;7.83;;;5.47;;
60867;SDS011;46702;48.370;10.794;2023-04-06T10:21:21;9.63;;;6.20;;
60867;SDS011;46702;48.370;10.794;2023-04-06T10:23:52;8.98;;;5.80;;
60867;SDS011;46702;48.370;10.794;2023-04-06T10:26:23;7.88;;;4.82;;
60867;SDS011;46702;48.370;10.794;2023-04-06T10:28:49;8.75;;;5.70;;
60867;SDS011;46702;48.370;10.794;2023-04-06T10:31:23;8.05;;;5.50;;
60867;SDS011;46702;48.370;10.794;2023-04-06T10:34:02;9.82;;;5.65;;
60867;SDS011;46702;48.370;10.794;2023-04-06T10:36:31;8.15;;;5.60;;
60867;SDS011;46702;48.370;10.794;2023-04-06T10:38:59;6.75;;;5.68;;
60867;SDS011;46702;48.370;10.794;2023-04-06T10:41:32;8.63;;;5.47;;
60867;SDS011;46702;48.370;10.794;2023-04-06T10:43:59;7.47;;;5.25;;
60867;SDS011;46702;48.370;10.794;2023-04-06T10:46:27;8.80;;;5.57;;
60867;SDS011;46702;48.370;10.794;2023-04-06T10:48:54;7.78;;;4.72;;
60867;SDS011;46702;48.370;10.794;2023-04-06T10:51:24;7.68;;;5.25;;
60867;SDS011;46702;48.370;10.794;2023-04-06T10:53:54;11.43;;;6.05;;
60867;SDS011;46702;48.370;10.794;2023-04-06T10:56:24;6.55;;;4.03;;
60867;SDS011;46702;48.370;10.794;2023-04-06T10:58:53;7.57;;;4.88;;
60867;SDS011;46702;48.370;10.794;2023-04-06T11:01:21;6.65;;;5.28;;
60867;SDS011;46702;48.370;10.794;2023-04-06T11:03:50;4.85;;;3.53;;
60867;SDS011;46702;48.370;10.794;2023-04-06T11:06:18;6.70;;;4.40;;
60867;SDS011;46702;48.370;10.794;2023-04-06T11:08:44;5.68;;;4.00;;
60867;SDS011;46702;48.370;10.794;2023-04-06T11:11:11;6.03;;;4.63;;
60867;SDS011;46702;48.370;10.794;2023-04-06T11:13:45;5.45;;;4.35;;
60867;SDS011;46702;48.370;10.794;2023-04-06T11:18:59;7.65;;;5.18;;
60867;SDS011;46702;48.370;10.794;2023-04-06T11:24:11;9.25;;;5.22;;
60867;SDS011;46702;48.370;10.794;2023-04-06T11:26:41;6.13;;;4.65;;
60867;SDS011;46702;48.370;10.794;2023-04-06T11:31:57;5.10;;;3.70;;
60867;SDS011;46702;48.370;10.794;2023-04-06T11:34:23;7.30;;;4.38;;
60867;SDS011;46702;48.370;10.794;2023-04-06T11:36:59;8.40;;;5.00;;
60867;SDS011;46702;48.370;10.794;2023-04-06T11:39:28;9.30;;;4.90;;
60867;SDS011;46702;48.370;10.794;2023-04-06T11:41:55;4.60;;;3.95;;
60867;SDS011;46702;48.370;10.794;2023-04-06T11:47:08;5.43;;;3.92;;
60867;SDS011;46702;48.370;10.794;2023-04-06T11:49:42;10.07;;;5.18;;
60867;SDS011;46702;48.370;10.794;2023-04-06T11:52:25;4.43;;;3.28;;
60867;SDS011;46702;48.370;10.794;2023-04-06T11:54:52;7.18;;;4.68;;
60867;SDS011;46702;48.370;10.794;2023-04-06T11:57:21;2.70;;;2.50;;
60867;SDS011;46702;48.370;10.794;2023-04-06T11:59:51;5.97;;;4.45;;
60867;SDS011;46702;48.370;10.794;2023-04-06T12:02:17;6.50;;;4.93;;
60867;SDS011;46702;48.370;10.794;2023-04-06T12:04:43;10.13;;;5.63;;
60867;SDS011;46702;48.370;10.794;2023-04-06T12:07:09;5.85;;;4.78;;
60867;SDS011;46702;48.370;10.794;2023-04-06T12:09:35;8.98;;;4.30;;
60867;SDS011;46702;48.370;10.794;2023-04-06T12:12:02;5.80;;;3.80;;
60867;SDS011;46702;48.370;10.794;2023-04-06T12:14:28;8.13;;;4.78;;
60867;SDS011;46702;48.370;10.794;2023-04-06T12:16:55;4.87;;;4.07;;
60867;SDS011;46702;48.370;10.794;2023-04-06T12:19:22;2.78;;;2.47;;
60867;SDS011;46702;48.370;10.794;2023-04-06T12:21:50;5.70;;;4.97;;
60867;SDS011;46702;48.370;10.794;2023-04-06T12:24:19;6.90;;;5.05;;
60867;SDS011;46702;48.370;10.794;2023-04-06T12:26:45;5.53;;;5.00;;
60867;SDS011;46702;48.370;10.794;2023-04-06T12:29:11;5.45;;;4.22;;
60867;SDS011;46702;48.370;10.794;2023-04-06T12:31:38;6.60;;;4.97;;
60867;SDS011;46702;48.370;10.794;2023-04-06T12:34:05;7.20;;;4.93;;
60867;SDS011;46702;48.370;10.794;2023-04-06T12:36:32;7.30;;;4.65;;
60867;SDS011;46702;48.370;10.794;2023-04-06T12:38:58;6.93;;;4.95;;
60867;SDS011;46702;48.370;10.794;2023-04-06T12:41:24;7.30;;;5.03;;
60867;SDS011;46702;48.370;10.794;2023-04-06T12:43:49;9.35;;;5.43;;
60867;SDS011;46702;48.370;10.794;2023-04-06T12:46:15;8.80;;;4.80;;
60867;SDS011;46702;48.370;10.794;2023-04-06T12:48:41;7.95;;;5.60;;
60867;SDS011;46702;48.370;10.794;2023-04-06T12:51:07;8.07;;;4.65;;
60867;SDS011;46702;48.370;10.794;2023-04-06T12:53:33;5.85;;;3.90;;
60867;SDS011;46702;48.370;10.794;2023-04-06T12:55:59;5.10;;;3.42;;
60867;SDS011;46702;48.370;10.794;2023-04-06T12:58:26;3.40;;;2.95;;
60867;SDS011;46702;48.370;10.794;2023-04-06T13:00:52;3.85;;;3.42;;
60867;SDS011;46702;48.370;10.794;2023-04-06T13:03:19;5.72;;;3.90;;
60867;SDS011;46702;48.370;10.794;2023-04-06T13:05:48;4.85;;;3.30;;
60867;SDS011;46702;48.370;10.794;2023-04-06T13:08:15;5.93;;;3.70;;
60867;SDS011;46702;48.370;10.794;2023-04-06T13:10:46;4.90;;;4.20;;
60867;SDS011;46702;48.370;10.794;2023-04-06T13:13:13;5.53;;;4.30;;
60867;SDS011;46702;48.370;10.794;2023-04-06T13:15:40;3.88;;;3.40;;
60867;SDS011;46702;48.370;10.794;2023-04-06T13:18:06;5.32;;;4.38;;
60867;SDS011;46702;48.370;10.794;2023-04-06T13:20:32;7.38;;;3.78;;
60867;SDS011;46702;48.370;10.794;2023-04-06T13:22:58;4.63;;;3.60;;
60867;SDS011;46702;48.370;10.794;2023-04-06T13:25:23;5.47;;;4.38;;
60867;SDS011;46702;48.370;10.794;2023-04-06T13:27:49;5.72;;;3.97;;
60867;SDS011;46702;48.370;10.794;2023-04-06T13:30:15;7.90;;;4.82;;
60867;SDS011;46702;48.370;10.794;2023-04-06T13:32:41;4.32;;;3.65;;
60867;SDS011;46702;48.370;10.794;2023-04-06T13:35:07;5.22;;;3.70;;
60867;SDS011;46702;48.370;10.794;2023-04-06T13:37:33;6.75;;;4.25;;
60867;SDS011;46702;48.370;10.794;2023-04-06T13:39:59;4.85;;;4.05;;
60867;SDS011;46702;48.370;10.794;2023-04-06T13:42:27;7.43;;;4.45;;
60867;SDS011;46702;48.370;10.794;2023-04-06T13:44:53;4.18;;;2.92;;
60867;SDS011;46702;48.370;10.794;2023-04-06T13:47:19;5.93;;;4.18;;
60867;SDS011;46702;48.370;10.794;2023-04-06T13:49:46;6.45;;;4.15;;
60867;SDS011;46702;48.370;10.794;2023-04-06T13:52:12;5.75;;;4.50;;
60867;SDS011;46702;48.370;10.794;2023-04-06T13:54:38;6.28;;;4.38;;
60867;SDS011;46702;48.370;10.794;2023-04-06T13:57:04;6.60;;;4.25;;
60867;SDS011;46702;48.370;10.794;2023-04-06T13:59:34;5.95;;;4.10;;
60867;SDS011;46702;48.370;10.794;2023-04-06T14:02:00;6.72;;;4.22;;
60867;SDS011;46702;48.370;10.794;2023-04-06T14:04:26;5.25;;;4.10;;
60867;SDS011;46702;48.370;10.794;2023-04-06T14:06:52;3.28;;;2.90;;
60867;SDS011;46702;48.370;10.794;2023-04-06T14:09:18;6.65;;;4.63;;
60867;SDS011;46702;48.370;10.794;2023-04-06T14:11:43;4.70;;;4.28;;
60867;SDS011;46702;48.370;10.794;2023-04-06T14:14:09;6.53;;;4.40;;
60867;SDS011;46702;48.370;10.794;2023-04-06T14:16:35;4.28;;;3.72;;
60867;SDS011;46702;48.370;10.794;2023-04-06T14:19:00;5.60;;;4.47;;
60867;SDS011;46702;48.370;10.794;2023-04-06T14:21:26;5.13;;;4.47;;
60867;SDS011;46702;48.370;10.794;2023-04-06T14:23:52;7.18;;;4.38;;
60867;SDS011;46702;48.370;10.794;2023-04-06T14:26:17;5.25;;;4.70;;
60867;SDS011;46702;48.370;10.794;2023-04-06T14:28:44;7.55;;;4.82;;
60867;SDS011;46702;48.370;10.794;2023-04-06T14:31:11;4.45;;;3.58;;
60867;SDS011;46702;48.370;10.794;2023-04-06T14:33:39;4.68;;;4.22;;
60867;SDS011;46702;48.370;10.794;2023-04-06T14:36:06;3.28;;;2.97;;
60867;SDS011;46702;48.370;10.794;2023-04-06T14:38:32;6.45;;;4.45;;
60867;SDS011;46702;48.370;10.794;2023-04-06T14:40:58;5.95;;;3.85;;
60867;SDS011;46702;48.370;10.794;2023-04-06T14:43:24;6.07;;;4.45;;
60867;SDS011;46702;48.370;10.794;2023-04-06T14:45:51;6.60;;;4.53;;
60867;SDS011;46702;48.370;10.794;2023-04-06T14:48:16;7.57;;;4.47;;
60867;SDS011;46702;48.370;10.794;2023-04-06T14:50:53;6.38;;;4.20;;
60867;SDS011;46702;48.370;10.794;2023-04-06T14:53:20;8.52;;;4.82;;
60867;SDS011;46702;48.370;10.794;2023-04-06T14:55:46;4.90;;;4.18;;